Grande Europa — ICGE — position and weather

sailwx.info

Track history (hours):
 
Tides and Currents Weather Stations Pressure Air Temp Water Temp Dewpoint Dewpoint Depression Visibility Wind Speed Wind Dir Waves Ship Positions

Grande Europa

Last reported at 2015-Aug-27 06:23 UTC. Time now 2015-Aug-28 02:12 UTC.
Position N 37°41' E 025°52'.

Length 183 m; draft 7.5 m.

Type: Cargo ship. MMSI: 247206000.

Date/timePositionNaut miles runAvg speedWind from/ knotsBaromVisibWave heightAir tempDewpointWater temp
2015-Aug-27 06:23N 37°41' E 025°52'1315.4
2015-Aug-27 05:33N 37°29' E 025°55'1616.0
2015-Aug-27 04:33N 37°14' E 026°04'1715.7
2015-Aug-27 03:30N 36°59' E 026°13'1415.2
2015-Aug-27 02:33N 36°47' E 026°23'1915.7
2015-Aug-27 01:21N 36°33' E 026°38'1215.6
2015-Aug-27 00:34N 36°24' E 026°49'3515.3
2015-Aug-26 22:18N 35°58' E 027°17'1214.9
2015-Aug-26 21:31N 35°47' E 027°23'1515.2
2015-Aug-26 20:33N 35°33' E 027°29'3014.9
2015-Aug-26 18:33N 35°06' E 027°44'254 5.4
2015-Aug-24 19:24N 34°13' E 032°46'1214.0
2015-Aug-24 18:33N 34°23' E 032°55'1413.9
2015-Aug-24 17:33N 34°34' E 033°05'7 6.3
2015-Aug-24 16:31N 34°39' E 033°01'0 0.0
2015-Aug-24 15:31N 34°39' E 033°01'0 0.0
2015-Aug-24 14:31N 34°39' E 033°01'0 0.0
2015-Aug-24 13:34N 34°39' E 033°01'2 2.2
2015-Aug-24 12:33N 34°38' E 033°04'1211.7
2015-Aug-24 11:33N 34°27' E 033°07'153 4.2
2015-Aug-22 23:16N 32°02' E 034°05'1014.5
2015-Aug-22 22:33N 32°06' E 033°54'3014.9
2015-Aug-22 20:33N 32°23' E 033°24'1515.4
2015-Aug-22 19:33N 32°32' E 033°10'1815.3
2015-Aug-22 18:21N 32°43' E 032°52'1315.2
2015-Aug-22 17:32N 32°50' E 032°40'1515.2
2015-Aug-22 16:32N 32°59' E 032°25'1515.3
2015-Aug-22 15:33N 33°07' E 032°10'1515.2
2015-Aug-22 14:33N 33°16' E 031°56'7715.4
2015-Aug-22 09:33N 34°02' E 030°41'1616.1
2015-Aug-22 08:33N 34°11' E 030°25'16417.6
2015-Aug-21 23:14N 35°47' E 027°43'1318.3
2015-Aug-21 22:33N 35°56' E 027°31'2118.2
2015-Aug-21 21:22N 36°12' E 027°13'1618.9
2015-Aug-21 20:33N 36°23' E 027°00'1918.1
2015-Aug-21 19:31N 36°40' E 026°50'1818.6
2015-Aug-21 18:33N 36°57' E 026°45'1817.6
2015-Aug-21 17:33N 37°14' E 026°40'2618.5
2015-Aug-21 16:09N 37°40' E 026°34'98 3.7
2015-Aug-20 13:30N 37°52' E 024°31'2317.2
2015-Aug-20 12:10N 37°37' E 024°08'1117.5
2015-Aug-20 11:34N 37°35' E 023°56'1716.8
2015-Aug-20 10:33N 37°46' E 023°39'1212.2
2015-Aug-20 09:33N 37°58' E 023°36'0 0.0
2015-Aug-20 08:33N 37°58' E 023°36'0 0.0
2015-Aug-20 07:33N 37°58' E 023°36'0 0.0
2015-Aug-20 06:33N 37°58' E 023°36'0 0.0
2015-Aug-20 05:33N 37°58' E 023°36'0 0.4
2015-Aug-20 04:34N 37°57' E 023°36'4 4.1
2015-Aug-20 03:33N 37°53' E 023°38'8 7.5
2015-Aug-20 02:33N 37°47' E 023°42'8 8.0
2015-Aug-20 01:33N 37°39' E 023°46'1313.1
2015-Aug-20 00:33N 37°26' E 023°43'1615.6
2015-Aug-19 23:33N 37°11' E 023°39'1514.9
2015-Aug-19 22:33N 36°56' E 023°36'1514.7
2015-Aug-19 21:33N 36°42' E 023°30'1515.0
2015-Aug-19 20:33N 36°30' E 023°21'34615.0
2015-Aug-18 21:33N 37°45' E 016°18'1515.4
2015-Aug-18 20:33N 37°49' E 015°59'1515.0
2015-Aug-18 19:33N 37°53' E 015°41'1413.6
2015-Aug-18 18:33N 38°06' E 015°35'1514.7
2015-Aug-18 17:33N 38°20' E 015°40'1616.2
2015-Aug-18 16:33N 38°35' E 015°31'12315.4
2015-Aug-18 08:33N 40°32' E 014°43'6 0.4
2015-Aug-17 18:26N 40°35' E 014°36'1415.4
2015-Aug-17 17:32N 40°29' E 014°19'1615.7
2015-Aug-17 16:33N 40°22' E 014°00'1515.4
2015-Aug-17 15:33N 40°16' E 013°42'  
Track history (hours):
 
Tides and Currents Weather Stations Pressure Air Temp Water Temp Dewpoint Dewpoint Depression Visibility Wind Speed Wind Dir Waves Ship Positions

Grande Europa

Last reported at 2015-Aug-27 06:23 UTC. Time now 2015-Aug-28 02:12 UTC.
Position N 37°41' E 025°52'.

Length 183 m; draft 7.5 m.

Type: Cargo ship. MMSI: 247206000.

Date/timePositionNaut miles runAvg speedWind from/ knotsBaromVisibWave heightAir tempDewpointWater temp
2015-Aug-27 06:23N 37°41' E 025°52'1315.4
2015-Aug-27 05:33N 37°29' E 025°55'1616.0
2015-Aug-27 04:33N 37°14' E 026°04'1715.7
2015-Aug-27 03:30N 36°59' E 026°13'1415.2
2015-Aug-27 02:33N 36°47' E 026°23'1915.7
2015-Aug-27 01:21N 36°33' E 026°38'1215.6
2015-Aug-27 00:34N 36°24' E 026°49'3515.3
2015-Aug-26 22:18N 35°58' E 027°17'1214.9
2015-Aug-26 21:31N 35°47' E 027°23'1515.2
2015-Aug-26 20:33N 35°33' E 027°29'3014.9
2015-Aug-26 18:33N 35°06' E 027°44'254 5.4
2015-Aug-24 19:24N 34°13' E 032°46'1214.0
2015-Aug-24 18:33N 34°23' E 032°55'1413.9
2015-Aug-24 17:33N 34°34' E 033°05'7 6.3
2015-Aug-24 16:31N 34°39' E 033°01'0 0.0
2015-Aug-24 15:31N 34°39' E 033°01'0 0.0
2015-Aug-24 14:31N 34°39' E 033°01'0 0.0
2015-Aug-24 13:34N 34°39' E 033°01'2 2.2
2015-Aug-24 12:33N 34°38' E 033°04'1211.7
2015-Aug-24 11:33N 34°27' E 033°07'153 4.2
2015-Aug-22 23:16N 32°02' E 034°05'1014.5
2015-Aug-22 22:33N 32°06' E 033°54'3014.9
2015-Aug-22 20:33N 32°23' E 033°24'1515.4
2015-Aug-22 19:33N 32°32' E 033°10'1815.3
2015-Aug-22 18:21N 32°43' E 032°52'1315.2
2015-Aug-22 17:32N 32°50' E 032°40'1515.2
2015-Aug-22 16:32N 32°59' E 032°25'1515.3
2015-Aug-22 15:33N 33°07' E 032°10'1515.2
2015-Aug-22 14:33N 33°16' E 031°56'7715.4
2015-Aug-22 09:33N 34°02' E 030°41'1616.1
2015-Aug-22 08:33N 34°11' E 030°25'16417.6
2015-Aug-21 23:14N 35°47' E 027°43'1318.3
2015-Aug-21 22:33N 35°56' E 027°31'2118.2
2015-Aug-21 21:22N 36°12' E 027°13'1618.9
2015-Aug-21 20:33N 36°23' E 027°00'1918.1
2015-Aug-21 19:31N 36°40' E 026°50'1818.6
2015-Aug-21 18:33N 36°57' E 026°45'1817.6
2015-Aug-21 17:33N 37°14' E 026°40'2618.5
2015-Aug-21 16:09N 37°40' E 026°34'98 3.7
2015-Aug-20 13:30N 37°52' E 024°31'2317.2
2015-Aug-20 12:10N 37°37' E 024°08'1117.5
2015-Aug-20 11:34N 37°35' E 023°56'1716.8
2015-Aug-20 10:33N 37°46' E 023°39'1212.2
2015-Aug-20 09:33N 37°58' E 023°36'0 0.0
2015-Aug-20 08:33N 37°58' E 023°36'0 0.0
2015-Aug-20 07:33N 37°58' E 023°36'0 0.0
2015-Aug-20 06:33N 37°58' E 023°36'0 0.0
2015-Aug-20 05:33N 37°58' E 023°36'0 0.4
2015-Aug-20 04:34N 37°57' E 023°36'4 4.1
2015-Aug-20 03:33N 37°53' E 023°38'8 7.5
2015-Aug-20 02:33N 37°47' E 023°42'8 8.0
2015-Aug-20 01:33N 37°39' E 023°46'1313.1
2015-Aug-20 00:33N 37°26' E 023°43'1615.6
2015-Aug-19 23:33N 37°11' E 023°39'1514.9
2015-Aug-19 22:33N 36°56' E 023°36'1514.7
2015-Aug-19 21:33N 36°42' E 023°30'1515.0
2015-Aug-19 20:33N 36°30' E 023°21'34615.0
2015-Aug-18 21:33N 37°45' E 016°18'1515.4
2015-Aug-18 20:33N 37°49' E 015°59'1515.0
2015-Aug-18 19:33N 37°53' E 015°41'1413.6
2015-Aug-18 18:33N 38°06' E 015°35'1514.7
2015-Aug-18 17:33N 38°20' E 015°40'1616.2
2015-Aug-18 16:33N 38°35' E 015°31'12315.4
2015-Aug-18 08:33N 40°32' E 014°43'6 0.4
2015-Aug-17 18:26N 40°35' E 014°36'1415.4
2015-Aug-17 17:32N 40°29' E 014°19'1615.7
2015-Aug-17 16:33N 40°22' E 014°00'1515.4
2015-Aug-17 15:33N 40°16' E 013°42'  

Dump ship's entire track history